Latest Weather Observations for Armidale Airport

IDN60801

Issued at 6:05 pm EDT Friday 27 February 2015 (issued every 30 minutes, with the page automatically refreshed every 10 minutes)

About weather observations | Map of weather stations | Latest weather observations for NSW | Other Formats
Station Details ID: 056238 Name: ARMIDALE AIRPORT AWS Lat: -30.53 Lon: 151.62 Height: 1079.0 m
Data from the previous 72 hours. | See also: Recent months for locations in New South Wales
Date/Time
EDT
Temp
°C
App
Temp
°C
Dew
Point
Rel
Hum
%
Delta-T
°C
Wind Press
QNH
hPa
Press
MSL
hPa
Rain
since 9 am
mm
Dir
 
Spd
km/h
Gust
km/h
Spd
kts
Gust
kts
27/06:00pm 21.0 20.2 16.2 74 3.0 E 15 19 8 10 1012.3 1006.4 0.2
27/05:30pm 20.4 19.9 17.0 81 2.2 E 15 19 8 10 1012.0 1006.2 0.2
27/05:00pm 20.5 19.4 17.3 82 2.1 SSE 19 20 10 11 1012.0 1006.2 0.2
27/04:30pm 22.6 22.5 15.0 62 4.7 WSW 9 15 5 8 1011.9 1006.1 0.2
27/04:00pm 22.6 20.6 15.4 64 4.5 W 20 26 11 14 1012.1 1006.3 0.2
27/03:30pm 22.0 22.0 15.1 65 4.3 SSW 9 15 5 8 1012.1 1006.3 0.2
27/03:00pm 19.1 16.3 13.1 68 3.6 SSE 20 32 11 17 1012.3 1006.4 0.2
27/02:30pm 23.9 22.5 16.9 65 4.5 NW 20 26 11 14 1011.8 1005.9 0.2
27/02:00pm 23.2 21.1 15.3 61 5.0 WNW 20 28 11 15 1012.5 1006.6 0.2
27/01:30pm 22.6 20.5 15.2 63 4.6 WNW 20 30 11 16 1012.8 1007.0 0.2
27/01:00pm 22.6 20.8 15.4 64 4.5 WNW 19 26 10 14 1013.0 1007.2 0.2
27/12:30pm 22.3 20.5 15.4 65 4.3 WNW 19 24 10 13 1013.5 1007.6 0.2
27/12:00pm 22.3 21.8 15.9 67 4.0 WSW 13 17 7 9 1013.9 1008.1 0.2
27/11:30am 20.9 20.5 14.1 65 4.1 SW 9 13 5 7 1014.0 1008.2 0.2
27/11:00am 20.9 21.6 15.7 72 3.3 ENE 6 9 3 5 1014.0 1008.2 0.2
27/10:30am 19.8 19.6 14.6 72 3.2 SSE 9 13 5 7 1014.1 1008.3 0.0
27/10:00am 19.1 18.9 14.6 75 2.7 SE 9 13 5 7 1014.0 1008.2 0.0
27/09:30am 19.0 19.4 14.7 76 2.6 S 6 9 3 5 1013.8 1008.0 0.0
27/09:00am 17.5 17.9 14.8 84 1.6 SSE 6 9 3 5 1013.4 1007.5 8.0
27/08:30am 16.1 16.4 15.0 93 0.7 SE 7 9 4 5 1013.4 1007.5 8.0
27/08:00am 14.6 16.0 14.3 98 0.2 CALM 0 0 0 0 1013.0 1007.2 8.0
27/07:30am 14.2 15.5 14.2 100 0.0 CALM 0 0 0 0 1012.7 1006.8 8.0
27/07:00am 12.9 12.7 12.9 100 0.0 SSE 6 7 3 4 1012.4 1006.5 8.0
27/06:34am 12.2 11.7 12.0 99 0.1 ESE 6 7 3 4 1012.0 1006.2 8.0
27/06:30am 11.8 11.0 11.6 99 0.1 ESE 7 9 4 5 1011.9 1006.1 8.0
27/06:24am 11.9 11.1 11.7 99 0.1 E 7 9 4 5 1011.9 1006.1 8.0
27/06:00am 12.2 12.4 12.0 99 0.1 ESE 2 6 1 3 1011.5 1005.6 8.0
27/05:30am 12.2 11.5 12.0 99 0.1 WSW 7 7 4 4 1011.1 1005.3 8.0
27/05:00am 12.5 13.2 12.3 99 0.1 CALM 0 0 0 0 1010.9 1005.0 8.0
27/04:41am 12.8 13.6 12.6 99 0.1 CALM 0 0 0 0 1010.9 1005.0 8.0
27/04:30am 12.9 12.6 12.7 99 0.1 NE 6 7 3 4 1010.9 1005.0 8.0
27/04:16am 12.4 11.8 12.2 99 0.1 NNE 7 9 4 5 1010.8 1004.9 8.0
27/04:00am 12.6 12.0 12.4 99 0.1 NE 7 9 4 5 1011.0 1005.1 8.0
27/03:30am 13.4 13.1 13.2 99 0.1 ESE 7 9 4 5 1010.9 1005.0 8.0
27/03:00am 14.0 13.1 13.8 99 0.1 SSE 11 15 6 8 1011.3 1005.4 8.0
27/02:30am 14.2 14.3 14.0 99 0.1 ESE 6 6 3 3 1011.8 1005.9 8.0
27/02:00am 14.4 13.3 14.2 99 0.1 NE 13 20 7 11 1012.3 1006.4 8.0
27/01:30am 14.2 14.1 14.0 99 0.1 N 7 9 4 5 1012.7 1006.8 7.8
27/01:00am 14.1 13.3 13.9 99 0.1 N 11 13 6 7 1013.1 1007.3 7.8
27/12:30am 14.2 11.9 14.0 99 0.1 ENE 19 24 10 13 1013.3 1007.4 7.6
27/12:00am 13.9 11.8 13.7 99 0.1 NE 17 20 9 11 1013.8 1008.0 6.8
 
Date/Time
EDT
Temp
°C
App
Temp
°C
Dew
Point
Rel
Hum
%
Delta-T
°C
Wind Press
QNH
hPa
Press
MSL
hPa
Rain
since 9 am
mm
Dir
 
Spd
km/h
Gust
km/h
Spd
kts
Gust
kts
26/11:30pm 13.9 11.5 13.7 99 0.1 NE 19 20 10 11 1013.4 1007.5 6.8
26/11:08pm 14.5 13.8 14.2 98 0.2 E 11 17 6 9 1013.7 1007.9 6.4
26/11:00pm 14.5 12.6 14.2 98 0.2 ESE 17 22 9 12 1013.6 1007.8 6.4
26/10:40pm 14.3 12.7 14.0 98 0.2 SSE 15 20 8 11 1014.3 1008.4 4.8
26/10:30pm 14.4 11.1 14.1 98 0.2 SSE 24 33 13 18 1014.4 1008.5 4.2
26/10:01pm 16.2 12.9 13.9 86 1.4 S 24 56 13 30 1014.0 1008.2 3.2
26/10:00pm 16.2 14.1 15.1 93 0.7 SSE 20 54 11 29 1014.1 1008.3 3.2
26/09:30pm 16.7 14.7 15.6 93 0.7 ENE 20 24 11 13 1012.6 1006.7 3.2
26/09:00pm 16.7 15.3 15.6 93 0.7 E 17 22 9 12 1012.6 1006.7 3.2
26/08:30pm 17.4 16.8 15.7 90 1.0 E 13 19 7 10 1012.7 1006.8 3.2
26/08:00pm 17.9 17.1 16.1 89 1.1 ENE 15 19 8 10 1011.3 1005.4 3.2
26/07:30pm 18.4 18.4 16.2 87 1.4 ENE 11 15 6 8 1011.5 1005.6 3.2
26/07:00pm 19.3 20.3 16.9 86 1.5 NNE 7 11 4 6 1011.7 1005.8 3.2
26/06:30pm 19.9 20.5 15.7 77 2.6 NNW 7 9 4 5 1011.5 1005.6 3.2
26/06:00pm 19.8 20.9 15.7 77 2.6 N 4 7 2 4 1011.4 1005.5 3.2
26/05:30pm 21.2 20.7 16.0 72 3.3 NNW 13 19 7 10 1011.4 1005.5 3.2
26/05:00pm 20.1 19.7 15.3 74 3.0 N 11 15 6 8 1011.4 1005.5 3.2
26/04:30pm 19.7 19.4 14.5 72 3.2 N 9 11 5 6 1011.8 1005.9 3.2
26/04:00pm 19.5 19.3 14.7 74 2.9 N 9 11 5 6 1011.9 1006.1 3.2
26/03:30pm 19.2 18.5 15.3 78 2.4 NNE 13 17 7 9 1012.0 1006.2 3.2
26/03:00pm 18.1 18.3 16.8 92 0.8 N 11 15 6 8 1012.6 1006.7 3.2
26/02:30pm 17.5 17.9 17.3 99 0.1 N 11 15 6 8 1013.3 1007.4 3.2
26/02:18pm 16.9 17.1 16.7 99 0.1 NNW 11 15 6 8 1013.5 1007.6 3.2
26/02:00pm 16.6 16.3 16.4 99 0.1 WNW 13 17 7 9 1013.8 1008.0 2.8
26/01:46pm 17.0 16.8 16.8 99 0.1 WNW 13 17 7 9 1013.9 1008.1 1.8
26/01:30pm 17.2 17.1 16.9 98 0.2 WNW 13 17 7 9 1014.0 1008.2 1.0
26/01:00pm 17.6 17.3 17.3 98 0.2 WNW 15 17 8 9 1014.0 1008.2 0.4
26/12:30pm 18.5 17.3 16.1 86 1.5 NW 17 20 9 11 1014.4 1008.5 0.0
26/12:00pm 19.9 17.9 13.8 68 3.7 NW 17 22 9 12 1014.3 1008.4 0.0
26/11:30am 19.5 18.9 14.7 74 2.9 WNW 11 13 6 7 1014.4 1008.5 0.0
26/11:00am 19.9 17.5 14.5 71 3.3 WNW 20 24 11 13 1014.7 1008.9 0.0
26/10:30am 20.4 18.2 14.5 69 3.6 W 19 24 10 13 1014.7 1008.9 0.0
26/10:00am 20.1 18.9 15.1 73 3.1 W 15 19 8 10 1014.6 1008.8 0.0
26/09:30am 19.6 18.5 14.2 71 3.3 WNW 13 15 7 8 1014.4 1008.5 0.0
26/09:00am 19.6 19.5 15.0 75 2.8 W 9 13 5 7 1014.3 1008.4 0.0
26/08:30am 18.0 18.2 14.3 79 2.2 NW 6 9 3 5 1014.1 1008.3 0.0
26/08:00am 17.0 18.5 14.6 86 1.5 CALM 0 0 0 0 1014.0 1008.2 0.0
26/07:30am 15.6 16.2 15.3 98 0.2 ENE 6 7 3 4 1013.9 1008.1 0.0
26/07:00am 15.2 15.5 15.0 99 0.1 E 7 9 4 5 1013.8 1008.0 0.0
26/06:30am 14.9 15.3 14.7 99 0.1 NNE 6 7 3 4 1013.6 1007.8 0.0
26/06:00am 15.1 15.4 14.9 99 0.1 ENE 7 9 4 5 1013.5 1007.6 0.0
26/05:30am 15.2 15.1 14.9 98 0.2 ESE 9 11 5 6 1013.6 1007.8 0.0
26/05:00am 15.1 14.9 14.8 98 0.2 E 9 11 5 6 1013.6 1007.8 0.0
26/04:30am 15.2 15.1 14.9 98 0.2 ESE 9 13 5 7 1013.7 1007.9 0.0
26/04:00am 15.3 15.2 15.0 98 0.2 E 9 13 5 7 1013.6 1007.8 0.0
26/03:30am 15.2 15.1 14.9 98 0.2 ESE 9 11 5 6 1013.9 1008.1 0.0
26/03:00am 15.4 13.8 15.1 98 0.2 ENE 17 20 9 11 1014.0 1008.2 0.0
26/02:30am 15.4 13.9 15.2 99 0.1 E 17 20 9 11 1014.3 1008.4 0.0
26/02:00am 15.5 14.8 15.3 99 0.1 E 13 17 7 9 1014.7 1008.9 0.0
26/01:30am 15.5 14.8 15.3 99 0.1 E 13 17 7 9 1015.3 1009.5 0.0
26/01:00am 15.4 13.9 15.2 99 0.1 E 17 20 9 11 1015.1 1009.3 0.0
26/12:30am 15.6 13.8 15.4 99 0.1 ENE 19 24 10 13 1015.1 1009.3 0.0
26/12:00am 15.8 13.8 15.5 98 0.2 E 20 28 11 15 1015.6 1009.8 0.0
 
Date/Time
EDT
Temp
°C
App
Temp
°C
Dew
Point
Rel
Hum
%
Delta-T
°C
Wind Press
QNH
hPa
Press
MSL
hPa
Rain
since 9 am
mm
Dir
 
Spd
km/h
Gust
km/h
Spd
kts
Gust
kts
25/11:30pm 16.0 13.7 15.7 98 0.2 E 22 28 12 15 1016.0 1010.2 0.0
25/11:00pm 16.4 14.8 16.1 98 0.2 E 19 24 10 13 1016.5 1010.7 0.0
25/10:34pm 16.7 15.2 16.4 98 0.2 E 19 24 10 13 1016.6 1010.8 0.0
25/10:30pm 16.8 15.2 16.5 98 0.2 E 20 26 11 14 1016.7 1010.9 0.0
25/10:00pm 17.1 15.6 16.8 98 0.2 E 20 30 11 16 1016.5 1010.7 0.0
25/09:30pm 17.2 15.7 16.4 95 0.5 E 19 28 10 15 1016.7 1010.9 0.0
25/09:17pm 17.4 16.0 16.6 95 0.5 ENE 19 26 10 14 1016.6 1010.8 0.0
25/09:00pm 17.3 16.3 16.5 95 0.5 E 17 24 9 13 1016.3 1010.5 0.0
25/08:30pm 17.9 16.2 15.7 87 1.4 ESE 19 26 10 14 1016.1 1010.4 0.0
25/08:00pm 18.5 16.9 15.0 80 2.1 ESE 17 26 9 14 1015.9 1010.1 0.0
25/07:30pm 19.4 17.4 14.9 75 2.8 ESE 19 26 10 14 1015.6 1009.8 0.0
25/07:00pm 20.4 17.7 13.6 65 4.1 ESE 20 28 11 15 1015.6 1009.8 0.0
25/06:30pm 21.9 19.2 13.5 59 5.1 ESE 20 32 11 17 1015.0 1009.2 0.0
25/06:00pm 22.7 19.8 12.9 54 5.9 ESE 20 28 11 15 1014.7 1008.9 0.0
25/05:30pm 22.8 19.8 12.7 53 6.1 ESE 20 28 11 15 1014.8 1009.0 0.0
25/05:00pm 22.8 20.4 13.8 57 5.5 ESE 19 28 10 15 1014.7 1008.9 0.0
25/04:30pm 22.3 19.6 13.4 57 5.4 ESE 20 30 11 16 1014.9 1009.1 0.0
25/04:00pm 24.1 22.4 13.6 52 6.4 ESE 15 20 8 11 1014.9 1009.1 0.0
25/03:30pm 23.8 22.2 13.9 54 6.1 SE 15 20 8 11 1015.5 1009.7 0.0
25/03:00pm 23.8 21.9 14.2 55 5.9 SE 17 24 9 13 1015.6 1009.8 0.0
25/02:30pm 23.7 22.4 13.8 53 6.1 SSE 13 20 7 11 1016.3 1010.5 0.0
25/02:00pm 22.9 20.5 14.5 59 5.2 SE 20 26 11 14 1016.8 1011.0 0.0
25/01:30pm 23.4 23.0 16.2 64 4.6 SSE 13 24 7 13 1017.1 1011.4 0.0
25/01:00pm 23.1 22.6 13.8 55 5.7 ESE 9 20 5 11 1017.3 1011.5 0.0
25/12:30pm 22.4 21.6 15.0 63 4.6 ENE 13 17 7 9 1017.6 1011.8 0.0
25/12:00pm 21.4 20.8 14.6 65 4.2 ENE 11 19 6 10 1017.9 1012.2 0.0
25/11:30am 21.0 19.8 15.1 69 3.7 E 15 22 8 12 1017.9 1012.2 0.0
25/11:00am 20.7 19.7 15.5 72 3.2 E 15 22 8 12 1018.0 1012.3 0.0
25/10:30am 19.9 18.9 15.5 76 2.7 E 15 20 8 11 1018.0 1012.3 0.0
25/10:14am 19.4 18.0 15.5 78 2.4 E 17 24 9 13 1018.0 1012.3 0.0
25/10:00am 19.3 18.1 16.2 82 1.9 E 17 28 9 15 1017.9 1012.2 0.0
25/09:30am 18.4 17.4 16.7 90 1.1 E 17 20 9 11 1017.9 1012.2 0.0
25/09:00am 16.9 14.0 15.2 90 1.0 E 24 33 13 18 1017.8 1012.1 0.0
25/08:30am 16.4 14.3 16.2 99 0.1 E 22 28 12 15 1017.5 1011.7 0.0
25/08:00am 15.2 12.7 15.2 100 0.0 ENE 22 32 12 17 1017.3 1011.5 0.0
25/07:40am 15.2 13.3 15.2 100 0.0 E 19 24 10 13 1017.4 1011.6 0.0
25/07:30am 15.3 13.4 15.3 100 0.0 E 19 24 10 13 1017.3 1011.5 0.0
25/07:23am 15.3 13.4 15.3 100 0.0 E 19 24 10 13 1017.3 1011.5 0.0
25/07:16am 15.3 13.2 15.3 100 0.0 E 20 24 11 13 1017.3 1011.5 0.0
25/07:00am 15.1 13.0 15.1 100 0.0 E 20 28 11 15 1017.0 1011.3 0.0
25/06:30am 15.3 14.2 15.3 100 0.0 E 15 20 8 11 1016.9 1011.1 0.0
25/06:00am 15.2 13.7 15.2 100 0.0 E 17 22 9 12 1016.7 1010.9 0.0
25/05:30am 15.1 13.5 14.9 99 0.1 E 17 22 9 12 1016.4 1010.6 0.0
25/05:20am 15.1 13.5 14.9 99 0.1 E 17 22 9 12 1016.3 1010.5 0.0
25/05:00am 15.2 13.6 15.0 99 0.1 E 17 22 9 12 1016.1 1010.4 0.0
25/04:30am 15.2 13.2 15.0 99 0.1 E 19 22 10 12 1016.1 1010.4 0.0
25/04:00am 15.0 12.9 14.7 98 0.2 E 19 22 10 12 1016.1 1010.4 0.0
25/03:30am 15.8 13.8 15.6 99 0.1 E 20 26 11 14 1016.1 1010.4 0.0
25/03:00am 15.9 14.0 15.7 99 0.1 E 20 28 11 15 1016.4 1010.6 0.0
25/02:30am 16.0 14.1 15.8 99 0.1 E 20 26 11 14 1016.8 1011.0 0.0
25/02:00am 15.8 14.4 15.6 99 0.1 ESE 17 24 9 13 1017.1 1011.4 0.0
25/01:49am 15.7 14.3 15.5 99 0.1 ESE 17 22 9 12 1017.3 1011.5 0.0
25/01:40am 15.5 14.0 15.3 99 0.1 E 17 22 9 12 1017.3 1011.5 0.0
25/01:30am 15.6 14.1 15.4 99 0.1 ESE 17 24 9 13 1017.3 1011.5 0.0
25/01:00am 16.2 14.4 16.0 99 0.1 E 20 30 11 16 1017.7 1011.9 0.0
25/12:30am 16.5 14.8 16.3 99 0.1 E 20 24 11 13 1018.3 1012.5 0.0
25/12:00am 16.5 14.4 16.3 99 0.1 E 22 30 12 16 1018.4 1012.6 0.0
 
Date/Time
EDT
Temp
°C
App
Temp
°C
Dew
Point
Rel
Hum
%
Delta-T
°C
Wind Press
QNH
hPa
Press
MSL
hPa
Rain
since 9 am
mm
Dir
 
Spd
km/h
Gust
km/h
Spd
kts
Gust
kts
24/11:30pm 16.7 15.3 16.5 99 0.1 ESE 19 26 10 14 1018.6 1012.8 0.0
24/11:11pm 16.7 15.7 16.5 99 0.1 ESE 17 24 9 13 1018.6 1012.8 0.0
24/11:02pm 16.6 15.5 16.4 99 0.1 ESE 17 24 9 13 1018.6 1012.8 0.0
24/11:00pm 16.7 15.7 16.5 99 0.1 E 17 24 9 13 1018.6 1012.8 0.0
24/10:30pm 16.9 16.3 16.7 99 0.1 E 15 20 8 11 1019.0 1013.3 0.0
24/10:00pm 17.0 15.5 16.8 99 0.1 E 20 28 11 15 1019.0 1013.3 0.0
24/09:30pm 16.9 15.9 16.6 98 0.2 E 17 24 9 13 1018.9 1013.2 0.0
24/09:00pm 17.2 15.8 16.9 98 0.2 E 20 28 11 15 1018.7 1013.0 0.0
24/08:30pm 17.4 15.7 17.2 99 0.1 E 22 32 12 17 1018.1 1012.4 0.0
24/08:07pm 17.4 16.0 17.1 98 0.2 E 20 30 11 16 1017.9 1012.2 0.0
24/08:00pm 17.3 16.1 17.0 98 0.2 E 19 26 10 14 1017.9 1012.2 0.0
24/07:30pm 17.8 16.3 15.4 86 1.5 E 17 26 9 14 1017.7 1011.9 0.0
24/07:00pm 19.0 16.1 15.1 78 2.4 ESE 24 35 13 19 1017.3 1011.5 0.0
24/06:30pm 19.3 16.9 16.3 83 1.9 ESE 24 33 13 18 1017.1 1011.4 0.0

Other Formats:

Comma delimited format used in spreadsheet applications
http://www.bom.gov.au/fwo/IDN60801/IDN60801.95773.axf

JavaScript Object Notation format (JSON) in row-major order
http://www.bom.gov.au/fwo/IDN60801/IDN60801.95773.json